sensor_id;sensor_type;location;lat;lon;timestamp;pressure;altitude;pressure_sealevel;temperature;humidity
14818;BME280;7500;57.698;11.986;2023-01-25T00:00:06;103462.69;;;6.20;100.00
14818;BME280;7500;57.698;11.986;2023-01-25T00:02:33;103535.72;;;6.68;100.00
14818;BME280;7500;57.698;11.986;2023-01-25T00:05:00;103534.03;;;6.72;100.00
14818;BME280;7500;57.698;11.986;2023-01-25T00:07:27;103533.16;;;6.72;100.00
14818;BME280;7500;57.698;11.986;2023-01-25T00:09:54;103524.41;;;6.73;100.00
14818;BME280;7500;57.698;11.986;2023-01-25T00:12:22;103522.69;;;6.76;100.00
14818;BME280;7500;57.698;11.986;2023-01-25T00:14:49;103514.72;;;6.68;100.00
14818;BME280;7500;57.698;11.986;2023-01-25T00:17:16;103508.56;;;6.66;100.00
14818;BME280;7500;57.698;11.986;2023-01-25T00:19:43;103518.25;;;6.68;100.00
14818;BME280;7500;57.698;11.986;2023-01-25T00:22:10;103510.31;;;6.64;100.00
14818;BME280;7500;57.698;11.986;2023-01-25T00:24:36;103520.00;;;6.69;100.00
14818;BME280;7500;57.698;11.986;2023-01-25T00:27:03;103517.34;;;6.66;100.00
14818;BME280;7500;57.698;11.986;2023-01-25T00:29:32;103514.75;;;6.69;100.00
14818;BME280;7500;57.698;11.986;2023-01-25T00:32:06;103520.03;;;6.72;100.00
14818;BME280;7500;57.698;11.986;2023-01-25T00:34:51;103509.56;;;6.75;100.00
14818;BME280;7500;57.698;11.986;2023-01-25T00:37:23;103498.16;;;6.73;100.00
14818;BME280;7500;57.698;11.986;2023-01-25T00:39:50;103494.63;;;6.71;100.00
14818;BME280;7500;57.698;11.986;2023-01-25T00:42:18;103477.94;;;6.63;100.00
14818;BME280;7500;57.698;11.986;2023-01-25T00:44:47;103483.19;;;6.65;100.00
14818;BME280;7500;57.698;11.986;2023-01-25T00:47:14;103481.53;;;6.74;100.00
14818;BME280;7500;57.698;11.986;2023-01-25T00:49:42;103449.00;;;6.57;100.00
14818;BME280;7500;57.698;11.986;2023-01-25T00:52:10;103466.66;;;6.74;100.00
14818;BME280;7500;57.698;11.986;2023-01-25T00:54:37;103459.69;;;6.78;100.00
14818;BME280;7500;57.698;11.986;2023-01-25T00:57:04;103460.56;;;6.77;100.00
14818;BME280;7500;57.698;11.986;2023-01-25T00:59:32;103461.44;;;6.76;100.00
14818;BME280;7500;57.698;11.986;2023-01-25T01:02:00;103458.72;;;6.67;100.00
14818;BME280;7500;57.698;11.986;2023-01-25T01:04:27;103457.03;;;6.72;100.00
14818;BME280;7500;57.698;11.986;2023-01-25T01:06:54;103456.19;;;6.76;100.00
14818;BME280;7500;57.698;11.986;2023-01-25T01:09:22;103464.88;;;6.73;100.00
14818;BME280;7500;57.698;11.986;2023-01-25T01:11:49;103459.63;;;6.73;100.00
14818;BME280;7500;57.698;11.986;2023-01-25T01:14:16;103452.66;;;6.74;100.00
14818;BME280;7500;57.698;11.986;2023-01-25T01:16:43;103463.22;;;6.81;100.00
14818;BME280;7500;57.698;11.986;2023-01-25T01:19:12;103457.97;;;6.84;100.00
14818;BME280;7500;57.698;11.986;2023-01-25T01:21:38;103449.13;;;6.73;100.00
14818;BME280;7500;57.698;11.986;2023-01-25T01:24:06;103446.53;;;6.75;100.00
14818;BME280;7500;57.698;11.986;2023-01-25T01:26:32;103447.44;;;6.78;100.00
14818;BME280;7500;57.698;11.986;2023-01-25T01:28:59;103452.69;;;6.78;100.00
14818;BME280;7500;57.698;11.986;2023-01-25T01:31:26;103449.09;;;6.66;100.00
14818;BME280;7500;57.698;11.986;2023-01-25T01:33:55;103448.28;;;6.73;100.00
14818;BME280;7500;57.698;11.986;2023-01-25T01:36:25;103448.28;;;6.76;100.00
14818;BME280;7500;57.698;11.986;2023-01-25T01:38:52;103436.91;;;6.80;100.00
14818;BME280;7500;57.698;11.986;2023-01-25T01:41:19;103443.06;;;6.76;100.00
14818;BME280;7500;57.698;11.986;2023-01-25T01:43:47;103432.50;;;6.71;100.00
14818;BME280;7500;57.698;11.986;2023-01-25T01:46:16;103421.16;;;6.75;100.00
14818;BME280;7500;57.698;11.986;2023-01-25T01:48:49;103416.91;;;6.98;100.00
14818;BME280;7500;57.698;11.986;2023-01-25T01:51:20;103423.91;;;6.93;100.00
14818;BME280;7500;57.698;11.986;2023-01-25T01:53:53;103415.81;;;6.67;100.00
14818;BME280;7500;57.698;11.986;2023-01-25T01:56:25;103412.47;;;6.85;100.00
14818;BME280;7500;57.698;11.986;2023-01-25T01:58:55;103411.56;;;6.82;100.00
14818;BME280;7500;57.698;11.986;2023-01-25T02:01:24;103407.03;;;6.60;100.00
14818;BME280;7500;57.698;11.986;2023-01-25T02:03:52;103406.28;;;6.77;100.00
14818;BME280;7500;57.698;11.986;2023-01-25T02:06:26;103398.38;;;6.73;100.00
14818;BME280;7500;57.698;11.986;2023-01-25T02:08:55;103397.56;;;6.83;100.00
14818;BME280;7500;57.698;11.986;2023-01-25T02:11:23;103393.25;;;6.92;100.00
14818;BME280;7500;57.698;11.986;2023-01-25T02:13:53;103392.38;;;6.92;100.00
14818;BME280;7500;57.698;11.986;2023-01-25T02:16:25;103336.16;;;6.57;100.00
14818;BME280;7500;57.698;11.986;2023-01-25T02:18:54;103378.34;;;6.88;100.00
14818;BME280;7500;57.698;11.986;2023-01-25T02:21:22;103391.50;;;6.97;100.00
14818;BME280;7500;57.698;11.986;2023-01-25T02:23:53;103371.28;;;6.80;100.00
14818;BME280;7500;57.698;11.986;2023-01-25T02:26:23;103378.28;;;6.78;100.00
14818;BME280;7500;57.698;11.986;2023-01-25T02:28:54;103376.53;;;6.83;100.00
14818;BME280;7500;57.698;11.986;2023-01-25T02:31:23;103373.88;;;6.75;100.00
14818;BME280;7500;57.698;11.986;2023-01-25T02:33:50;103371.28;;;6.78;100.00
14818;BME280;7500;57.698;11.986;2023-01-25T02:36:20;103359.88;;;6.73;100.00
14818;BME280;7500;57.698;11.986;2023-01-25T02:38:53;103364.28;;;6.77;100.00
14818;BME280;7500;57.698;11.986;2023-01-25T02:41:29;103358.97;;;6.67;100.00
14818;BME280;7500;57.698;11.986;2023-01-25T02:43:57;103357.22;;;6.70;100.00
14818;BME280;7500;57.698;11.986;2023-01-25T02:46:27;103362.50;;;6.76;100.00
14818;BME280;7500;57.698;11.986;2023-01-25T02:48:56;103356.38;;;6.74;100.00
14818;BME280;7500;57.698;11.986;2023-01-25T02:51:25;103358.16;;;6.80;100.00
14818;BME280;7500;57.698;11.986;2023-01-25T02:53:53;103359.88;;;6.76;100.00
14818;BME280;7500;57.698;11.986;2023-01-25T02:56:20;103366.88;;;6.70;100.00
14818;BME280;7500;57.698;11.986;2023-01-25T02:58:49;103359.00;;;6.74;100.00
14818;BME280;7500;57.698;11.986;2023-01-25T03:01:16;103361.63;;;6.73;100.00
14818;BME280;7500;57.698;11.986;2023-01-25T03:03:43;103354.59;;;6.69;100.00
14818;BME280;7500;57.698;11.986;2023-01-25T03:06:10;103366.88;;;6.70;100.00
14818;BME280;7500;57.698;11.986;2023-01-25T03:08:37;103354.59;;;6.66;100.00
14818;BME280;7500;57.698;11.986;2023-01-25T03:11:06;103356.34;;;6.71;100.00
14818;BME280;7500;57.698;11.986;2023-01-25T03:13:33;103358.13;;;6.74;100.00
14818;BME280;7500;57.698;11.986;2023-01-25T03:16:04;103359.03;;;6.76;100.00
14818;BME280;7500;57.698;11.986;2023-01-25T03:18:31;103350.31;;;6.84;100.00
14818;BME280;7500;57.698;11.986;2023-01-25T03:21:04;103350.28;;;6.83;100.00
14818;BME280;7500;57.698;11.986;2023-01-25T03:23:31;103354.66;;;6.84;100.00
14818;BME280;7500;57.698;11.986;2023-01-25T03:26:05;103338.91;;;6.81;100.00
14818;BME280;7500;57.698;11.986;2023-01-25T03:28:32;103329.25;;;6.80;100.00
14818;BME280;7500;57.698;11.986;2023-01-25T03:30:58;103315.25;;;6.76;100.00
14818;BME280;7500;57.698;11.986;2023-01-25T03:33:27;103315.28;;;6.82;100.00
14818;BME280;7500;57.698;11.986;2023-01-25T03:35:54;103312.66;;;6.84;100.00
14818;BME280;7500;57.698;11.986;2023-01-25T03:38:21;103322.25;;;6.77;100.00
14818;BME280;7500;57.698;11.986;2023-01-25T03:40:48;103318.75;;;6.80;100.00
14818;BME280;7500;57.698;11.986;2023-01-25T03:43:15;103314.34;;;6.70;100.00
14818;BME280;7500;57.698;11.986;2023-01-25T03:45:42;103323.97;;;6.72;100.00
14818;BME280;7500;57.698;11.986;2023-01-25T03:48:09;103324.88;;;6.70;100.00
14818;BME280;7500;57.698;11.986;2023-01-25T03:50:37;103322.22;;;6.70;100.00
14818;BME280;7500;57.698;11.986;2023-01-25T03:53:04;103319.59;;;6.67;100.00
14818;BME280;7500;57.698;11.986;2023-01-25T03:55:39;103314.34;;;6.67;100.00
14818;BME280;7500;57.698;11.986;2023-01-25T03:58:05;103302.94;;;6.61;100.00
14818;BME280;7500;57.698;11.986;2023-01-25T04:00:32;103312.50;;;6.54;100.00
14818;BME280;7500;57.698;11.986;2023-01-25T04:02:59;103300.28;;;6.55;100.00
14818;BME280;7500;57.698;11.986;2023-01-25T04:05:26;103309.09;;;6.68;100.00
14818;BME280;7500;57.698;11.986;2023-01-25T04:07:54;103297.69;;;6.62;100.00
14818;BME280;7500;57.698;11.986;2023-01-25T04:10:21;103292.44;;;6.62;100.00
14818;BME280;7500;57.698;11.986;2023-01-25T04:12:48;103296.88;;;6.72;100.00
14818;BME280;7500;57.698;11.986;2023-01-25T04:15:15;103286.38;;;6.72;100.00
14818;BME280;7500;57.698;11.986;2023-01-25T04:17:42;103282.91;;;6.79;100.00
14818;BME280;7500;57.698;11.986;2023-01-25T04:20:10;103275.00;;;6.73;100.00
14818;BME280;7500;57.698;11.986;2023-01-25T04:22:37;103282.91;;;6.80;100.00
14818;BME280;7500;57.698;11.986;2023-01-25T04:25:06;103279.41;;;6.81;100.00
14818;BME280;7500;57.698;11.986;2023-01-25T04:27:33;103274.16;;;6.84;100.00
14818;BME280;7500;57.698;11.986;2023-01-25T04:30:00;103253.13;;;6.77;100.00
14818;BME280;7500;57.698;11.986;2023-01-25T04:32:27;103248.78;;;6.79;100.00
14818;BME280;7500;57.698;11.986;2023-01-25T04:34:53;103210.16;;;6.57;100.00
14818;BME280;7500;57.698;11.986;2023-01-25T04:37:20;103251.34;;;6.70;100.00
14818;BME280;7500;57.698;11.986;2023-01-25T04:39:47;103248.72;;;6.71;100.00
14818;BME280;7500;57.698;11.986;2023-01-25T04:42:15;103234.75;;;6.75;100.00
14818;BME280;7500;57.698;11.986;2023-01-25T04:44:42;103242.59;;;6.71;100.00
14818;BME280;7500;57.698;11.986;2023-01-25T04:47:09;103237.34;;;6.71;100.00
14818;BME280;7500;57.698;11.986;2023-01-25T04:49:36;103229.50;;;6.74;100.00
14818;BME280;7500;57.698;11.986;2023-01-25T04:52:03;103230.38;;;6.76;100.00
14818;BME280;7500;57.698;11.986;2023-01-25T04:54:30;103227.72;;;6.70;100.00
14818;BME280;7500;57.698;11.986;2023-01-25T04:56:57;103222.47;;;6.74;100.00
14818;BME280;7500;57.698;11.986;2023-01-25T04:59:25;103240.88;;;6.76;100.00
14818;BME280;7500;57.698;11.986;2023-01-25T05:01:52;103232.13;;;6.74;100.00
14818;BME280;7500;57.698;11.986;2023-01-25T05:04:19;103235.63;;;6.73;100.00
14818;BME280;7500;57.698;11.986;2023-01-25T05:06:46;103225.09;;;6.67;100.00
14818;BME280;7500;57.698;11.986;2023-01-25T05:09:12;103224.19;;;6.67;100.00
14818;BME280;7500;57.698;11.986;2023-01-25T05:11:40;103216.34;;;6.68;100.00
14818;BME280;7500;57.698;11.986;2023-01-25T05:14:08;103217.19;;;6.68;100.00
14818;BME280;7500;57.698;11.986;2023-01-25T05:16:36;103201.44;;;6.66;100.00
14818;BME280;7500;57.698;11.986;2023-01-25T05:19:03;103149.69;;;6.26;100.00
14818;BME280;7500;57.698;11.986;2023-01-25T05:21:29;103201.47;;;6.67;100.00
14818;BME280;7500;57.698;11.986;2023-01-25T05:24:14;103211.97;;;6.67;100.00
14818;BME280;7500;57.698;11.986;2023-01-25T05:26:41;103218.97;;;6.69;100.00
14818;BME280;7500;57.698;11.986;2023-01-25T05:29:25;103225.09;;;6.63;100.00
14818;BME280;7500;57.698;11.986;2023-01-25T05:31:54;103225.06;;;6.61;100.00
14818;BME280;7500;57.698;11.986;2023-01-25T05:34:21;103209.31;;;6.57;100.00
14818;BME280;7500;57.698;11.986;2023-01-25T05:36:48;103210.19;;;6.63;100.00
14818;BME280;7500;57.698;11.986;2023-01-25T05:39:15;103206.72;;;6.67;100.00
14818;BME280;7500;57.698;11.986;2023-01-25T05:41:42;103204.09;;;6.63;100.00
14818;BME280;7500;57.698;11.986;2023-01-25T05:44:09;103209.34;;;6.71;100.00
14818;BME280;7500;57.698;11.986;2023-01-25T05:46:36;103203.22;;;6.68;100.00
14818;BME280;7500;57.698;11.986;2023-01-25T05:49:05;103195.34;;;6.75;100.00
14818;BME280;7500;57.698;11.986;2023-01-25T05:51:32;103189.22;;;6.73;100.00
14818;BME280;7500;57.698;11.986;2023-01-25T05:54:00;103184.84;;;6.71;100.00
14818;BME280;7500;57.698;11.986;2023-01-25T05:56:27;103176.09;;;6.69;100.00
14818;BME280;7500;57.698;11.986;2023-01-25T05:58:55;103173.47;;;6.66;100.00
14818;BME280;7500;57.698;11.986;2023-01-25T06:01:23;103165.56;;;6.68;100.00
14818;BME280;7500;57.698;11.986;2023-01-25T06:03:50;103162.06;;;6.61;100.00
14818;BME280;7500;57.698;11.986;2023-01-25T06:06:19;103169.97;;;6.63;100.00
14818;BME280;7500;57.698;11.986;2023-01-25T06:08:46;103165.59;;;6.66;100.00
14818;BME280;7500;57.698;11.986;2023-01-25T06:11:15;103161.19;;;6.61;100.00
14818;BME280;7500;57.698;11.986;2023-01-25T06:13:43;103162.09;;;6.70;100.00
14818;BME280;7500;57.698;11.986;2023-01-25T06:16:10;103165.59;;;6.73;100.00
14818;BME280;7500;57.698;11.986;2023-01-25T06:18:38;103154.19;;;6.57;100.00
14818;BME280;7500;57.698;11.986;2023-01-25T06:21:05;103155.94;;;6.62;100.00
14818;BME280;7500;57.698;11.986;2023-01-25T06:23:33;103155.91;;;6.50;100.00
14818;BME280;7500;57.698;11.986;2023-01-25T06:26:01;103144.53;;;6.54;100.00
14818;BME280;7500;57.698;11.986;2023-01-25T06:28:29;103146.25;;;6.40;100.00
14818;BME280;7500;57.698;11.986;2023-01-25T06:31:03;103155.03;;;6.51;100.00
14818;BME280;7500;57.698;11.986;2023-01-25T06:33:30;103147.13;;;6.42;100.00
14818;BME280;7500;57.698;11.986;2023-01-25T06:36:02;103136.63;;;6.48;100.00
14818;BME280;7500;57.698;11.986;2023-01-25T06:38:29;103130.50;;;6.37;100.00
14818;BME280;7500;57.698;11.986;2023-01-25T06:41:02;103136.69;;;6.53;100.00
14818;BME280;7500;57.698;11.986;2023-01-25T06:43:32;103145.38;;;6.46;100.00
14818;BME280;7500;57.698;11.986;2023-01-25T06:46:00;103141.00;;;6.42;100.00
14818;BME280;7500;57.698;11.986;2023-01-25T06:48:28;103147.16;;;6.47;100.00
14818;BME280;7500;57.698;11.986;2023-01-25T06:50:56;103102.50;;;6.33;100.00
14818;BME280;7500;57.698;11.986;2023-01-25T06:53:25;103119.16;;;6.49;100.00
14818;BME280;7500;57.698;11.986;2023-01-25T06:55:58;103124.41;;;6.44;100.00
14818;BME280;7500;57.698;11.986;2023-01-25T06:58:27;103106.00;;;6.35;100.00
14818;BME280;7500;57.698;11.986;2023-01-25T07:00:59;103106.03;;;6.49;100.00
14818;BME280;7500;57.698;11.986;2023-01-25T07:03:26;103098.16;;;6.44;100.00
14818;BME280;7500;57.698;11.986;2023-01-25T07:05:57;103101.66;;;6.48;100.00
14818;BME280;7500;57.698;11.986;2023-01-25T07:08:23;103092.03;;;6.51;100.00
14818;BME280;7500;57.698;11.986;2023-01-25T07:10:54;103089.44;;;6.45;100.00
14818;BME280;7500;57.698;11.986;2023-01-25T07:13:22;103088.53;;;6.43;100.00
14818;BME280;7500;57.698;11.986;2023-01-25T07:15:54;103096.41;;;6.48;100.00
14818;BME280;7500;57.698;11.986;2023-01-25T07:18:22;103092.03;;;6.51;100.00
14818;BME280;7500;57.698;11.986;2023-01-25T07:20:49;103100.78;;;6.49;100.00
14818;BME280;7500;57.698;11.986;2023-01-25T07:23:16;103096.41;;;6.42;100.00
14818;BME280;7500;57.698;11.986;2023-01-25T07:25:44;103057.00;;;6.28;100.00
14818;BME280;7500;57.698;11.986;2023-01-25T07:28:11;103098.16;;;6.46;100.00
14818;BME280;7500;57.698;11.986;2023-01-25T07:30:39;103092.00;;;6.41;100.00
14818;BME280;7500;57.698;11.986;2023-01-25T07:33:07;103099.03;;;6.37;100.00
14818;BME280;7500;57.698;11.986;2023-01-25T07:35:35;103099.00;;;6.36;100.00
14818;BME280;7500;57.698;11.986;2023-01-25T07:38:02;103098.16;;;6.41;100.00
14818;BME280;7500;57.698;11.986;2023-01-25T07:40:29;103089.41;;;6.39;100.00
14818;BME280;7500;57.698;11.986;2023-01-25T07:42:56;103073.66;;;6.47;100.00
14818;BME280;7500;57.698;11.986;2023-01-25T07:45:23;103065.81;;;6.42;100.00
14818;BME280;7500;57.698;11.986;2023-01-25T07:47:55;103081.56;;;6.50;100.00
14818;BME280;7500;57.698;11.986;2023-01-25T07:50:23;103061.41;;;6.43;100.00
14818;BME280;7500;57.698;11.986;2023-01-25T07:52:50;103052.66;;;6.35;100.00
14818;BME280;7500;57.698;11.986;2023-01-25T07:55:17;103066.66;;;6.40;100.00
14818;BME280;7500;57.698;11.986;2023-01-25T07:57:44;103057.06;;;6.40;100.00
14818;BME280;7500;57.698;11.986;2023-01-25T08:00:12;103066.63;;;6.31;100.00
14818;BME280;7500;57.698;11.986;2023-01-25T08:02:39;103060.53;;;6.33;100.00
14818;BME280;7500;57.698;11.986;2023-01-25T08:05:07;103051.75;;;6.28;100.00
14818;BME280;7500;57.698;11.986;2023-01-25T08:07:35;103048.28;;;6.28;100.00
14818;BME280;7500;57.698;11.986;2023-01-25T08:10:02;103031.63;;;6.24;100.00
14818;BME280;7500;57.698;11.986;2023-01-25T08:12:31;103032.53;;;6.32;100.00
14818;BME280;7500;57.698;11.986;2023-01-25T08:14:58;103022.91;;;6.21;100.00
14818;BME280;7500;57.698;11.986;2023-01-25T08:17:25;103029.00;;;6.09;100.00
14818;BME280;7500;57.698;11.986;2023-01-25T08:19:57;103023.72;;;6.15;100.00
14818;BME280;7500;57.698;11.986;2023-01-25T08:22:24;103021.13;;;6.24;100.00
14818;BME280;7500;57.698;11.986;2023-01-25T08:24:52;103013.28;;;6.27;100.00
14818;BME280;7500;57.698;11.986;2023-01-25T08:27:19;102999.28;;;6.21;100.00
14818;BME280;7500;57.698;11.986;2023-01-25T08:29:46;103004.50;;;6.19;100.00
14818;BME280;7500;57.698;11.986;2023-01-25T08:32:14;103001.91;;;6.21;100.00
14818;BME280;7500;57.698;11.986;2023-01-25T08:34:41;102976.53;;;6.06;100.00
14818;BME280;7500;57.698;11.986;2023-01-25T08:37:08;102980.06;;;6.19;100.00
14818;BME280;7500;57.698;11.986;2023-01-25T08:39:35;102987.06;;;6.27;100.00
14818;BME280;7500;57.698;11.986;2023-01-25T08:42:04;102987.03;;;6.18;100.00
14818;BME280;7500;57.698;11.986;2023-01-25T08:44:31;102973.03;;;6.13;100.00
14818;BME280;7500;57.698;11.986;2023-01-25T08:46:58;102959.94;;;6.19;100.00
14818;BME280;7500;57.698;11.986;2023-01-25T08:49:25;102973.06;;;6.28;100.00
14818;BME280;7500;57.698;11.986;2023-01-25T08:51:52;102969.56;;;6.32;100.00
14818;BME280;7500;57.698;11.986;2023-01-25T08:54:19;102940.69;;;6.13;100.00
14818;BME280;7500;57.698;11.986;2023-01-25T08:56:46;102967.84;;;6.27;100.00
14818;BME280;7500;57.698;11.986;2023-01-25T08:59:14;102958.19;;;6.30;100.00
14818;BME280;7500;57.698;11.986;2023-01-25T09:01:41;102957.31;;;6.28;100.00
14818;BME280;7500;57.698;11.986;2023-01-25T09:04:08;102944.22;;;6.21;100.00
14818;BME280;7500;57.698;11.986;2023-01-25T09:06:35;102957.31;;;6.19;100.00
14818;BME280;7500;57.698;11.986;2023-01-25T09:09:02;102943.31;;;6.11;100.00
14818;BME280;7500;57.698;11.986;2023-01-25T09:11:32;102948.56;;;6.23;100.00
14818;BME280;7500;57.698;11.986;2023-01-25T09:13:59;102956.44;;;6.26;100.00
14818;BME280;7500;57.698;11.986;2023-01-25T09:16:27;102938.06;;;6.23;100.00
14818;BME280;7500;57.698;11.986;2023-01-25T09:18:55;102923.22;;;6.22;100.00
14818;BME280;7500;57.698;11.986;2023-01-25T09:21:22;102925.84;;;6.61;100.00
14818;BME280;7500;57.698;11.986;2023-01-25T09:23:51;102917.09;;;6.56;100.00
14818;BME280;7500;57.698;11.986;2023-01-25T09:26:18;102905.69;;;6.81;100.00
14818;BME280;7500;57.698;11.986;2023-01-25T09:28:47;102900.50;;;6.50;100.00
14818;BME280;7500;57.698;11.986;2023-01-25T09:31:15;102904.88;;;6.43;100.00
14818;BME280;7500;57.698;11.986;2023-01-25T09:33:43;102861.16;;;6.09;100.00
14818;BME280;7500;57.698;11.986;2023-01-25T09:36:10;102894.38;;;6.25;100.00
14818;BME280;7500;57.698;11.986;2023-01-25T09:38:38;102903.13;;;6.33;100.00
14818;BME280;7500;57.698;11.986;2023-01-25T09:41:15;102903.13;;;6.39;100.00
14818;BME280;7500;57.698;11.986;2023-01-25T09:44:02;102892.63;;;6.36;100.00
14818;BME280;7500;57.698;11.986;2023-01-25T09:46:38;102896.09;;;6.47;100.00
14818;BME280;7500;57.698;11.986;2023-01-25T09:49:20;102887.38;;;6.42;100.00
14818;BME280;7500;57.698;11.986;2023-01-25T09:52:05;102875.13;;;6.32;100.00
14818;BME280;7500;57.698;11.986;2023-01-25T09:54:39;102882.13;;;6.26;100.00
14818;BME280;7500;57.698;11.986;2023-01-25T09:57:13;102875.13;;;6.23;100.00
14818;BME280;7500;57.698;11.986;2023-01-25T09:59:43;102789.47;;;5.80;100.00
14818;BME280;7500;57.698;11.986;2023-01-25T10:02:18;102870.75;;;6.31;100.00
14818;BME280;7500;57.698;11.986;2023-01-25T10:04:53;102859.38;;;6.34;100.00
14818;BME280;7500;57.698;11.986;2023-01-25T10:07:28;102860.25;;;6.28;100.00
14818;BME280;7500;57.698;11.986;2023-01-25T10:10:00;102861.13;;;6.35;100.00
14818;BME280;7500;57.698;11.986;2023-01-25T10:12:34;102850.63;;;6.35;100.00
14818;BME280;7500;57.698;11.986;2023-01-25T10:15:04;102845.41;;;6.23;100.00
14818;BME280;7500;57.698;11.986;2023-01-25T10:17:39;102844.50;;;6.39;100.00
14818;BME280;7500;57.698;11.986;2023-01-25T10:20:19;102839.28;;;6.34;100.00
14818;BME280;7500;57.698;11.986;2023-01-25T10:22:54;102834.03;;;6.40;100.00
14818;BME280;7500;57.698;11.986;2023-01-25T10:25:31;102845.38;;;6.48;100.00
14818;BME280;7500;57.698;11.986;2023-01-25T10:28:24;102825.28;;;6.32;100.00
14818;BME280;7500;57.698;11.986;2023-01-25T10:30:57;102832.28;;;6.38;100.00
14818;BME280;7500;57.698;11.986;2023-01-25T10:33:27;102841.06;;;6.25;100.00
14818;BME280;7500;57.698;11.986;2023-01-25T10:36:00;102826.16;;;6.31;100.00
14818;BME280;7500;57.698;11.986;2023-01-25T10:38:32;102823.53;;;6.37;100.00
14818;BME280;7500;57.698;11.986;2023-01-25T10:41:04;102813.03;;;6.43;100.00
14818;BME280;7500;57.698;11.986;2023-01-25T10:43:32;102813.03;;;6.51;100.00
14818;BME280;7500;57.698;11.986;2023-01-25T10:46:00;102810.44;;;6.40;100.00
14818;BME280;7500;57.698;11.986;2023-01-25T10:48:29;102797.28;;;6.39;100.00
14818;BME280;7500;57.698;11.986;2023-01-25T10:51:00;102807.81;;;6.37;100.00
14818;BME280;7500;57.698;11.986;2023-01-25T10:53:29;102800.75;;;6.57;100.00
14818;BME280;7500;57.698;11.986;2023-01-25T10:56:22;102793.72;;;6.67;100.00
14818;BME280;7500;57.698;11.986;2023-01-25T10:58:51;102787.63;;;6.62;100.00
14818;BME280;7500;57.698;11.986;2023-01-25T11:01:27;102773.59;;;6.68;100.00
14818;BME280;7500;57.698;11.986;2023-01-25T11:03:55;102771.88;;;6.60;100.00
14818;BME280;7500;57.698;11.986;2023-01-25T11:06:34;102774.50;;;6.54;100.00
14818;BME280;7500;57.698;11.986;2023-01-25T11:12:17;102775.44;;;6.41;100.00
14818;BME280;7500;57.698;11.986;2023-01-25T11:14:45;102760.59;;;6.25;100.00
14818;BME280;7500;57.698;11.986;2023-01-25T11:17:26;102776.34;;;6.24;100.00
14818;BME280;7500;57.698;11.986;2023-01-25T11:20:06;102785.97;;;6.19;100.00
14818;BME280;7500;57.698;11.986;2023-01-25T11:22:33;102787.69;;;6.18;100.00
14818;BME280;7500;57.698;11.986;2023-01-25T11:25:25;102804.31;;;6.16;100.00
14818;BME280;7500;57.698;11.986;2023-01-25T11:28:09;102814.81;;;6.19;100.00
14818;BME280;7500;57.698;11.986;2023-01-25T11:30:36;102821.81;;;6.17;100.00
14818;BME280;7500;57.698;11.986;2023-01-25T11:33:08;102823.56;;;6.18;100.00
14818;BME280;7500;57.698;11.986;2023-01-25T11:35:39;102815.69;;;6.15;100.00
14818;BME280;7500;57.698;11.986;2023-01-25T11:38:12;102805.19;;;6.13;100.00
14818;BME280;7500;57.698;11.986;2023-01-25T11:40:45;102822.69;;;6.11;100.00
14818;BME280;7500;57.698;11.986;2023-01-25T11:43:27;102787.72;;;5.99;100.00
14818;BME280;7500;57.698;11.986;2023-01-25T11:46:24;102820.03;;;6.17;100.00
14818;BME280;7500;57.698;11.986;2023-01-25T11:49:09;102807.84;;;6.07;100.00
14818;BME280;7500;57.698;11.986;2023-01-25T11:51:47;102730.03;;;5.70;100.00
14818;BME280;7500;57.698;11.986;2023-01-25T11:54:28;102848.03;;;6.17;100.00
14818;BME280;7500;57.698;11.986;2023-01-25T11:57:15;102853.25;;;5.96;100.00
14818;BME280;7500;57.698;11.986;2023-01-25T12:00:09;102841.03;;;5.98;100.00
14818;BME280;7500;57.698;11.986;2023-01-25T12:02:58;102818.31;;;6.07;100.00
14818;BME280;7500;57.698;11.986;2023-01-25T12:05:35;102814.81;;;6.08;100.00
14818;BME280;7500;57.698;11.986;2023-01-25T12:08:18;102799.94;;;5.89;100.00
14818;BME280;7500;57.698;11.986;2023-01-25T12:10:54;102792.09;;;5.91;100.00
14818;BME280;7500;57.698;11.986;2023-01-25T12:13:33;102806.94;;;5.90;100.00
14818;BME280;7500;57.698;11.986;2023-01-25T12:16:17;102799.94;;;5.86;100.00
14818;BME280;7500;57.698;11.986;2023-01-25T12:19:06;102796.44;;;5.81;100.00
14818;BME280;7500;57.698;11.986;2023-01-25T12:21:52;102916.19;;;5.94;100.00
14818;BME280;7500;57.698;11.986;2023-01-25T12:24:37;102898.72;;;6.04;100.00
14818;BME280;7500;57.698;11.986;2023-01-25T12:27:15;102869.00;;;6.12;100.00
14818;BME280;7500;57.698;11.986;2023-01-25T12:29:49;102836.66;;;6.09;100.00
14818;BME280;7500;57.698;11.986;2023-01-25T12:32:25;102818.28;;;6.16;100.00
14818;BME280;7500;57.698;11.986;2023-01-25T12:35:02;102816.56;;;6.09;100.00
14818;BME280;7500;57.698;11.986;2023-01-25T12:37:34;102788.59;;;6.08;100.00
14818;BME280;7500;57.698;11.986;2023-01-25T12:40:08;102785.06;;;6.18;100.00
14818;BME280;7500;57.698;11.986;2023-01-25T12:42:42;102772.00;;;6.03;100.00
14818;BME280;7500;57.698;11.986;2023-01-25T12:45:14;102745.78;;;5.91;100.00
14818;BME280;7500;57.698;11.986;2023-01-25T12:47:48;102743.16;;;5.88;100.00
14818;BME280;7500;57.698;11.986;2023-01-25T12:50:19;102749.28;;;5.90;100.00
14818;BME280;7500;57.698;11.986;2023-01-25T12:52:50;102742.28;;;5.86;100.00
14818;BME280;7500;57.698;11.986;2023-01-25T12:55:19;102799.09;;;5.89;100.00
14818;BME280;7500;57.698;11.986;2023-01-25T12:57:52;102819.13;;;5.60;100.00
14818;BME280;7500;57.698;11.986;2023-01-25T13:00:25;102833.16;;;5.81;100.00
14818;BME280;7500;57.698;11.986;2023-01-25T13:03:07;102838.34;;;5.77;100.00
14818;BME280;7500;57.698;11.986;2023-01-25T13:05:39;102825.31;;;5.86;100.00
14818;BME280;7500;57.698;11.986;2023-01-25T13:08:19;102810.44;;;5.83;100.00